VKG42G VOHS-VOBL
Flight info
| Callsign | VKG42G |
|---|---|
| Flight time | 0h 34m |
| Altitude | 34000 |
| Route | VABDI W153 TELUV |
| Aircraft | A333/H-SDE3GHIJ2J3J5M1RVWXY/LB2D1 |
Departure
| Time | 2026-04-18 09:45 |
|---|---|
| Airport | Rajiv Gandhi International Airport (VOHS) |
Arrival
| Time | 2026-04-18 10:20 |
|---|---|
| Airport | Kempegowda International Airport Bengaluru (VOBL) |
| Time | Latitude | Longitude | Altitude | Speed | Heading |
|---|---|---|---|---|---|
| 2026-04-18 09:22 | 17.23437 | 78.42811 | 1985 ft | 0 kts | 0° |
| 2026-04-18 09:36 | 17.23430 | 78.42811 | 1983 ft | 4 kts | 0° |
| 2026-04-18 09:36 | 17.23403 | 78.42811 | 1985 ft | 4 kts | 1° |
| 2026-04-18 09:36 | 17.23375 | 78.42810 | 1985 ft | 4 kts | 2° |
| 2026-04-18 09:37 | 17.23350 | 78.42809 | 1984 ft | 3 kts | 6° |
| 2026-04-18 09:37 | 17.23336 | 78.42806 | 1985 ft | 2 kts | 24° |
| 2026-04-18 09:37 | 17.23327 | 78.42799 | 1987 ft | 2 kts | 76° |
| 2026-04-18 09:37 | 17.23326 | 78.42793 | 1988 ft | 0 kts | 90° |
| 2026-04-18 09:39 | 17.23326 | 78.42794 | 1984 ft | 1 kts | 90° |
| 2026-04-18 09:39 | 17.23326 | 78.42818 | 1985 ft | 6 kts | 88° |
| 2026-04-18 09:39 | 17.23329 | 78.42879 | 1988 ft | 9 kts | 87° |
| 2026-04-18 09:40 | 17.23330 | 78.42948 | 1988 ft | 10 kts | 89° |
| 2026-04-18 09:40 | 17.23330 | 78.43023 | 1989 ft | 11 kts | 90° |
| 2026-04-18 09:40 | 17.23328 | 78.43103 | 1990 ft | 11 kts | 97° |
| 2026-04-18 09:40 | 17.23286 | 78.43168 | 1991 ft | 11 kts | 131° |
| 2026-04-18 09:41 | 17.23258 | 78.43236 | 1992 ft | 7 kts | 95° |
| 2026-04-18 09:41 | 17.23257 | 78.43287 | 1991 ft | 10 kts | 90° |
| 2026-04-18 09:41 | 17.23257 | 78.43362 | 1995 ft | 10 kts | 90° |
| 2026-04-18 09:41 | 17.23257 | 78.43456 | 1995 ft | 14 kts | 90° |
| 2026-04-18 09:42 | 17.23258 | 78.43560 | 1995 ft | 13 kts | 89° |
| 2026-04-18 09:42 | 17.23257 | 78.43645 | 1997 ft | 9 kts | 101° |
| 2026-04-18 09:42 | 17.23213 | 78.43700 | 1994 ft | 11 kts | 155° |
| 2026-04-18 09:42 | 17.23135 | 78.43709 | 1995 ft | 12 kts | 168° |
| 2026-04-18 09:43 | 17.23097 | 78.43777 | 1995 ft | 14 kts | 89° |
| 2026-04-18 09:43 | 17.23097 | 78.43895 | 1997 ft | 17 kts | 90° |
| 2026-04-18 09:43 | 17.23099 | 78.44033 | 1999 ft | 21 kts | 89° |
| 2026-04-18 09:43 | 17.23102 | 78.44199 | 2001 ft | 21 kts | 89° |
| 2026-04-18 09:44 | 17.23080 | 78.44286 | 2001 ft | 13 kts | 141° |
| 2026-04-18 09:44 | 17.22985 | 78.44308 | 2001 ft | 15 kts | 180° |
| 2026-04-18 09:44 | 17.22905 | 78.44258 | 1999 ft | 14 kts | 252° |
| 2026-04-18 09:44 | 17.22894 | 78.44027 | 1998 ft | 65 kts | 269° |
| 2026-04-18 09:45 | 17.22882 | 78.43254 | 1994 ft | 145 kts | 269° |
| 2026-04-18 09:45 | 17.22871 | 78.41952 | 2239 ft | 200 kts | 266° |
| 2026-04-18 09:45 | 17.22876 | 78.40411 | 3211 ft | 223 kts | 269° |
| 2026-04-18 09:45 | 17.22591 | 78.38774 | 4248 ft | 242 kts | 241° |
| 2026-04-18 09:46 | 17.21431 | 78.37486 | 4996 ft | 251 kts | 207° |
| 2026-04-18 09:46 | 17.19700 | 78.37089 | 5397 ft | 267 kts | 173° |
| 2026-04-18 09:46 | 17.17879 | 78.37631 | 5755 ft | 278 kts | 159° |
| 2026-04-18 09:46 | 17.16042 | 78.38272 | 5882 ft | 279 kts | 163° |
| 2026-04-18 09:47 | 17.14163 | 78.38801 | 5872 ft | 280 kts | 164° |
| 2026-04-18 09:47 | 17.12283 | 78.39329 | 5841 ft | 279 kts | 165° |
| 2026-04-18 09:47 | 17.10390 | 78.39809 | 5913 ft | 280 kts | 167° |
| 2026-04-18 09:47 | 17.08484 | 78.40249 | 5918 ft | 281 kts | 167° |
| 2026-04-18 09:48 | 17.06569 | 78.40664 | 5921 ft | 281 kts | 168° |
| 2026-04-18 09:48 | 17.04655 | 78.41064 | 5922 ft | 280 kts | 168° |
| 2026-04-18 09:48 | 17.02739 | 78.41457 | 5941 ft | 280 kts | 168° |
| 2026-04-18 09:48 | 17.00824 | 78.41844 | 6270 ft | 282 kts | 168° |
| 2026-04-18 09:49 | 16.98887 | 78.42234 | 6727 ft | 284 kts | 168° |
| 2026-04-18 09:49 | 16.96936 | 78.42625 | 7364 ft | 286 kts | 169° |
| 2026-04-18 09:49 | 16.94960 | 78.42920 | 8190 ft | 288 kts | 172° |
| 2026-04-18 09:49 | 16.92965 | 78.43169 | 9044 ft | 290 kts | 173° |
| 2026-04-18 09:50 | 16.90950 | 78.43409 | 9879 ft | 293 kts | 173° |
| 2026-04-18 09:50 | 16.88882 | 78.43648 | 10426 ft | 308 kts | 173° |
| 2026-04-18 09:50 | 16.86675 | 78.43898 | 10715 ft | 330 kts | 173° |
| 2026-04-18 09:50 | 16.84345 | 78.44159 | 11175 ft | 342 kts | 173° |
| 2026-04-18 09:51 | 16.81964 | 78.44424 | 11895 ft | 347 kts | 173° |
| 2026-04-18 09:51 | 16.79547 | 78.44693 | 12653 ft | 351 kts | 173° |
| 2026-04-18 09:51 | 16.77106 | 78.44964 | 13428 ft | 353 kts | 172° |
| 2026-04-18 09:51 | 16.74656 | 78.45235 | 14173 ft | 356 kts | 173° |
| 2026-04-18 09:52 | 16.72176 | 78.45510 | 14798 ft | 360 kts | 173° |
| 2026-04-18 09:52 | 16.69657 | 78.45790 | 15374 ft | 367 kts | 173° |
| 2026-04-18 09:52 | 16.67973 | 78.45977 | 15795 ft | 370 kts | 173° |
| 2026-04-18 09:52 | 16.65404 | 78.46261 | 16492 ft | 372 kts | 173° |
| 2026-04-18 09:53 | 16.61987 | 78.46639 | 17430 ft | 375 kts | 173° |
| 2026-04-18 09:53 | 16.59379 | 78.46928 | 18055 ft | 379 kts | 173° |
| 2026-04-18 09:53 | 16.56736 | 78.47221 | 18573 ft | 384 kts | 174° |
| 2026-04-18 09:53 | 16.54075 | 78.47516 | 19179 ft | 385 kts | 174° |
| 2026-04-18 09:54 | 16.51403 | 78.47812 | 19764 ft | 387 kts | 174° |
| 2026-04-18 09:54 | 16.49621 | 78.48008 | 20063 ft | 391 kts | 174° |
| 2026-04-18 09:54 | 16.46899 | 78.48309 | 20559 ft | 395 kts | 174° |
| 2026-04-18 09:54 | 16.44161 | 78.48613 | 21130 ft | 397 kts | 175° |
| 2026-04-18 09:55 | 16.41401 | 78.48918 | 21676 ft | 400 kts | 175° |
| 2026-04-18 09:55 | 16.38618 | 78.49225 | 22169 ft | 404 kts | 175° |
| 2026-04-18 09:55 | 16.35810 | 78.49535 | 22726 ft | 406 kts | 175° |
| 2026-04-18 09:55 | 16.32991 | 78.49846 | 23275 ft | 408 kts | 175° |
| 2026-04-18 09:56 | 16.30155 | 78.50160 | 23743 ft | 411 kts | 175° |
| 2026-04-18 09:56 | 16.16239 | 78.51719 | 26055 ft | 416 kts | 176° |
| 2026-04-18 09:56 | 15.92907 | 78.54276 | 29507 ft | 429 kts | 177° |
| 2026-04-18 09:56 | 15.68792 | 78.56918 | 32221 ft | 442 kts | 178° |
| 2026-04-18 09:57 | 15.45099 | 78.59509 | 33803 ft | 447 kts | 178° |
| 2026-04-18 09:57 | 15.42027 | 78.59848 | 33806 ft | 441 kts | 178° |
| 2026-04-18 09:57 | 15.35818 | 78.60524 | 33801 ft | 457 kts | 178° |
| 2026-04-18 09:58 | 15.29407 | 78.61223 | 33797 ft | 474 kts | 177° |
| 2026-04-18 09:58 | 15.16577 | 78.62628 | 33790 ft | 487 kts | 177° |
| 2026-04-18 09:59 | 14.94757 | 78.60226 | 33802 ft | 458 kts | 217° |
| 2026-04-18 09:59 | 14.92437 | 78.57975 | 33794 ft | 460 kts | 233° |
| 2026-04-18 09:59 | 14.90819 | 78.55125 | 33786 ft | 463 kts | 248° |
| 2026-04-18 10:00 | 14.88240 | 78.49047 | 33784 ft | 465 kts | 232° |
| 2026-04-18 10:00 | 14.85956 | 78.46694 | 33791 ft | 466 kts | 217° |
| 2026-04-18 10:00 | 14.83108 | 78.45080 | 33790 ft | 470 kts | 202° |
| 2026-04-18 10:00 | 14.79906 | 78.44330 | 33790 ft | 476 kts | 188° |
| 2026-04-18 10:01 | 14.76581 | 78.44202 | 33789 ft | 479 kts | 184° |
| 2026-04-18 10:01 | 14.66777 | 78.42560 | 33787 ft | 474 kts | 201° |
| 2026-04-18 10:01 | 14.60687 | 78.39994 | 33685 ft | 473 kts | 207° |
| 2026-04-18 10:02 | 14.47802 | 78.33611 | 32566 ft | 477 kts | 207° |
| 2026-04-18 10:02 | 14.24069 | 78.22287 | 29166 ft | 460 kts | 206° |
| 2026-04-18 10:02 | 14.15000 | 78.18108 | 25820 ft | 480 kts | 204° |
| 2026-04-18 10:02 | 14.12010 | 78.16695 | 25590 ft | 467 kts | 205° |
| 2026-04-18 10:03 | 14.09069 | 78.15292 | 25341 ft | 465 kts | 205° |
| 2026-04-18 10:03 | 14.06130 | 78.13885 | 24938 ft | 465 kts | 205° |
| 2026-04-18 10:03 | 14.03235 | 78.12498 | 24636 ft | 452 kts | 205° |
| 2026-04-18 10:03 | 14.00425 | 78.11151 | 24416 ft | 438 kts | 204° |
| 2026-04-18 10:04 | 13.97697 | 78.09844 | 24058 ft | 429 kts | 204° |
| 2026-04-18 10:04 | 13.94991 | 78.08548 | 23348 ft | 430 kts | 204° |
| 2026-04-18 10:04 | 13.92272 | 78.07246 | 22568 ft | 430 kts | 204° |
| 2026-04-18 10:04 | 13.89565 | 78.05950 | 21937 ft | 427 kts | 204° |
| 2026-04-18 10:05 | 13.86669 | 78.04563 | 21389 ft | 421 kts | 203° |
| 2026-04-18 10:05 | 13.76340 | 77.99620 | 19519 ft | 399 kts | 202° |
| 2026-04-18 10:05 | 13.66437 | 77.94887 | 17638 ft | 388 kts | 202° |
| 2026-04-18 10:05 | 13.56887 | 77.90368 | 15779 ft | 377 kts | 203° |
| 2026-04-18 10:06 | 13.47744 | 77.86042 | 14894 ft | 337 kts | 202° |
| 2026-04-18 10:06 | 13.39744 | 77.82264 | 14355 ft | 298 kts | 202° |
| 2026-04-18 10:06 | 13.36978 | 77.80958 | 14163 ft | 286 kts | 201° |
| 2026-04-18 10:06 | 13.35184 | 77.80111 | 13933 ft | 283 kts | 201° |
| 2026-04-18 10:07 | 13.33408 | 77.79263 | 13693 ft | 279 kts | 204° |
| 2026-04-18 10:07 | 13.31854 | 77.78057 | 13238 ft | 283 kts | 229° |
| 2026-04-18 10:07 | 13.31047 | 77.76245 | 12879 ft | 281 kts | 261° |
| 2026-04-18 10:07 | 13.30926 | 77.74265 | 12569 ft | 275 kts | 271° |
| 2026-04-18 10:08 | 13.30954 | 77.72316 | 12291 ft | 272 kts | 272° |
| 2026-04-18 10:08 | 13.30996 | 77.70385 | 12012 ft | 271 kts | 272° |
| 2026-04-18 10:08 | 13.31031 | 77.68444 | 11672 ft | 271 kts | 271° |
| 2026-04-18 10:08 | 13.31057 | 77.66516 | 11323 ft | 269 kts | 271° |
| 2026-04-18 10:09 | 13.31078 | 77.64599 | 10987 ft | 267 kts | 271° |
| 2026-04-18 10:09 | 13.31096 | 77.62696 | 10652 ft | 266 kts | 271° |
| 2026-04-18 10:09 | 13.31112 | 77.60808 | 10318 ft | 263 kts | 271° |
| 2026-04-18 10:09 | 13.31128 | 77.58932 | 9990 ft | 261 kts | 270° |
| 2026-04-18 10:10 | 13.31142 | 77.57073 | 9654 ft | 259 kts | 270° |
| 2026-04-18 10:10 | 13.31156 | 77.55227 | 9305 ft | 258 kts | 271° |
| 2026-04-18 10:10 | 13.31170 | 77.53394 | 8968 ft | 256 kts | 270° |
| 2026-04-18 10:10 | 13.31183 | 77.51571 | 8636 ft | 255 kts | 270° |
| 2026-04-18 10:11 | 13.31196 | 77.49789 | 8298 ft | 249 kts | 270° |
| 2026-04-18 10:11 | 13.31209 | 77.48049 | 7987 ft | 239 kts | 270° |
| 2026-04-18 10:11 | 13.31218 | 77.46380 | 7697 ft | 229 kts | 269° |
| 2026-04-18 10:11 | 13.31204 | 77.44770 | 7412 ft | 221 kts | 270° |
| 2026-04-18 10:12 | 13.30991 | 77.43263 | 7152 ft | 210 kts | 244° |
| 2026-04-18 10:12 | 13.30059 | 77.42180 | 6900 ft | 202 kts | 206° |
| 2026-04-18 10:12 | 13.28735 | 77.41807 | 6754 ft | 196 kts | 182° |
| 2026-04-18 10:12 | 13.27377 | 77.41738 | 6630 ft | 195 kts | 178° |
| 2026-04-18 10:13 | 13.26021 | 77.41711 | 6522 ft | 195 kts | 177° |
| 2026-04-18 10:13 | 13.24685 | 77.41839 | 6441 ft | 191 kts | 155° |
| 2026-04-18 10:13 | 13.23665 | 77.42635 | 6387 ft | 184 kts | 128° |
| 2026-04-18 10:13 | 13.22895 | 77.43676 | 6333 ft | 182 kts | 123° |
| 2026-04-18 10:14 | 13.22165 | 77.44739 | 6270 ft | 182 kts | 122° |
| 2026-04-18 10:14 | 13.21441 | 77.45809 | 6199 ft | 181 kts | 120° |
| 2026-04-18 10:14 | 13.20957 | 77.46989 | 6143 ft | 179 kts | 103° |
| 2026-04-18 10:14 | 13.20782 | 77.48255 | 6087 ft | 179 kts | 92° |
| 2026-04-18 10:15 | 13.20757 | 77.49532 | 6023 ft | 179 kts | 90° |
| 2026-04-18 10:15 | 13.20756 | 77.50812 | 5997 ft | 180 kts | 90° |
| 2026-04-18 10:15 | 13.20754 | 77.52098 | 5993 ft | 179 kts | 90° |
| 2026-04-18 10:15 | 13.20749 | 77.53354 | 5861 ft | 178 kts | 90° |
| 2026-04-18 10:16 | 13.20744 | 77.54620 | 5613 ft | 174 kts | 91° |
| 2026-04-18 10:16 | 13.20739 | 77.55831 | 5403 ft | 164 kts | 90° |
| 2026-04-18 10:16 | 13.20736 | 77.56952 | 5197 ft | 151 kts | 90° |
| 2026-04-18 10:16 | 13.20732 | 77.58008 | 5020 ft | 147 kts | 90° |
| 2026-04-18 10:17 | 13.20729 | 77.59048 | 4828 ft | 145 kts | 90° |
| 2026-04-18 10:17 | 13.20725 | 77.60078 | 4637 ft | 144 kts | 89° |
| 2026-04-18 10:17 | 13.20721 | 77.61121 | 4466 ft | 147 kts | 90° |
| 2026-04-18 10:17 | 13.20718 | 77.62166 | 4283 ft | 145 kts | 91° |
| 2026-04-18 10:18 | 13.20714 | 77.63188 | 4109 ft | 141 kts | 88° |
| 2026-04-18 10:18 | 13.20711 | 77.64187 | 3931 ft | 141 kts | 88° |
| 2026-04-18 10:18 | 13.20708 | 77.65195 | 3771 ft | 140 kts | 91° |
| 2026-04-18 10:18 | 13.20704 | 77.66160 | 3566 ft | 131 kts | 90° |
| 2026-04-18 10:19 | 13.20701 | 77.67096 | 3402 ft | 134 kts | 88° |
| 2026-04-18 10:19 | 13.20698 | 77.68068 | 3216 ft | 138 kts | 88° |
| 2026-04-18 10:19 | 13.20710 | 77.69036 | 3040 ft | 133 kts | 90° |
| 2026-04-18 10:19 | 13.20707 | 77.69920 | 2981 ft | 109 kts | 90° |
| 2026-04-18 10:20 | 13.20703 | 77.70337 | 2971 ft | 14 kts | 90° |
| 2026-04-18 10:20 | 13.20679 | 77.70451 | 2968 ft | 18 kts | 108° |
| 2026-04-18 10:20 | 13.20622 | 77.70575 | 2957 ft | 20 kts | 118° |
| 2026-04-18 10:20 | 13.20554 | 77.70696 | 2952 ft | 16 kts | 120° |
| 2026-04-18 10:21 | 13.20528 | 77.70809 | 2949 ft | 14 kts | 90° |
| 2026-04-18 10:21 | 13.20506 | 77.70880 | 2943 ft | 9 kts | 153° |
| 2026-04-18 10:21 | 13.20441 | 77.70891 | 2943 ft | 10 kts | 174° |
| 2026-04-18 10:21 | 13.20365 | 77.70897 | 2950 ft | 12 kts | 175° |
| 2026-04-18 10:22 | 13.20285 | 77.70913 | 2943 ft | 11 kts | 168° |
| 2026-04-18 10:22 | 13.20209 | 77.70917 | 2945 ft | 11 kts | 180° |
| 2026-04-18 10:22 | 13.20173 | 77.70917 | 2956 ft | 0 kts | 180° |